Time;durP1;ratioP1;P1;durP2;ratioP2;P2;SDS_P1;SDS_P2;PMS_P1;PMS_P2;Temp;Humidity;BMP_temperature;BMP_pressure;BME280_temperature;BME280_humidity;BME280_pressure;Samples;Min_cycle;Max_cycle;Signal;HPM_P1;HPM_P2
2021/07/19 00:02:07;;;;;;;5.23;2.97;;;;;;;;;;4975293;28;20081;-76
2021/07/19 00:04:35;;;;;;;5.20;2.90;;;;;;;;;;4974949;28;20429;-77
2021/07/19 00:07:01;;;;;;;4.53;2.63;;;;;;;;;;4959885;28;20027;-77
2021/07/19 00:09:26;;;;;;;5.47;2.77;;;;;;;;;;4974967;28;20115;-77
2021/07/19 00:11:51;;;;;;;5.27;2.83;;;;;;;;;;4958785;28;20054;-77
2021/07/19 00:14:17;;;;;;;4.87;2.60;;;;;;;;;;4975037;28;20097;-77
2021/07/19 00:16:42;;;;;;;5.43;3.00;;;;;;;;;;4976626;28;20047;-77
2021/07/19 00:19:07;;;;;;;5.00;2.70;;;;;;;;;;4975623;28;20026;-77
2021/07/19 00:21:33;;;;;;;5.30;2.90;;;;;;;;;;4974657;28;20497;-77
2021/07/19 00:23:58;;;;;;;4.93;2.80;;;;;;;;;;4976047;28;20080;-77
2021/07/19 00:26:23;;;;;;;4.80;2.70;;;;;;;;;;4991059;28;20061;-77
2021/07/19 00:28:49;;;;;;;4.57;2.73;;;;;;;;;;4974880;28;20129;-77
2021/07/19 00:31:15;;;;;;;5.00;2.80;;;;;;;;;;4974853;28;20023;-77
2021/07/19 00:33:40;;;;;;;4.90;2.80;;;;;;;;;;4974606;28;20294;-77
2021/07/19 00:36:05;;;;;;;5.50;2.90;;;;;;;;;;4974589;28;20054;-77
2021/07/19 00:38:31;;;;;;;4.90;2.77;;;;;;;;;;4974919;28;20464;-77
2021/07/19 00:40:56;;;;;;;4.60;2.73;;;;;;;;;;4975198;28;20033;-77
2021/07/19 00:43:21;;;;;;;5.20;3.00;;;;;;;;;;4952394;29;20615;-77
2021/07/19 00:45:47;;;;;;;4.37;2.73;;;;;;;;;;4970384;28;20031;-77
2021/07/19 00:48:12;;;;;;;4.43;2.57;;;;;;;;;;4954807;29;20031;-77
2021/07/19 00:50:38;;;;;;;4.90;2.70;;;;;;;;;;4966134;28;20058;-77
2021/07/19 00:53:07;;;;;;;5.27;2.90;;;;;;;;;;4974492;28;20038;-77
2021/07/19 00:55:40;;;;;;;4.78;2.72;;;;;;;;;;4958663;28;20134;-77
2021/07/19 00:58:06;;;;;;;5.65;2.92;;;;;;;;;;4958009;28;20097;-77
2021/07/19 01:00:34;;;;;;;5.10;2.90;;;;;;;;;;4974479;28;20050;-77
2021/07/19 01:02:59;;;;;;;5.03;2.63;;;;;;;;;;4942539;28;20114;-77
2021/07/19 01:05:25;;;;;;;5.17;2.73;;;;;;;;;;4957650;28;20126;-77
2021/07/19 01:07:51;;;;;;;4.90;2.88;;;;;;;;;;4957913;28;20058;-77
2021/07/19 01:10:17;;;;;;;4.83;2.83;;;;;;;;;;4974121;28;20461;-77
2021/07/19 01:12:53;;;;;;;;;;;;;;;;;;4942422;28;20118;-74
2021/07/19 01:15:19;;;;;;;4.22;2.47;;;;;;;;;;4974957;28;19914;-76
2021/07/19 01:17:45;;;;;;;5.05;2.70;;;;;;;;;;4974232;28;20085;-77
2021/07/19 01:20:10;;;;;;;4.93;2.63;;;;;;;;;;4973143;28;20039;-77
2021/07/19 01:22:57;;;;;;;4.70;2.73;;;;;;;;;;4973687;28;20489;-77
2021/07/19 01:25:27;;;;;;;5.13;2.80;;;;;;;;;;4975015;28;20031;-77
2021/07/19 01:28:17;;;;;;;4.82;2.67;;;;;;;;;;4973914;28;20030;-77
2021/07/19 01:30:42;;;;;;;4.53;2.60;;;;;;;;;;4974255;28;20042;-77
2021/07/19 01:33:08;;;;;;;4.47;2.63;;;;;;;;;;4990118;28;20497;-75
2021/07/19 01:35:36;;;;;;;4.33;2.60;;;;;;;;;;4974324;28;20109;-74
2021/07/19 01:38:02;;;;;;;5.05;2.90;;;;;;;;;;4957968;28;20026;-77
2021/07/19 01:40:27;;;;;;;4.57;2.67;;;;;;;;;;4973916;28;20027;-77
2021/07/19 01:42:52;;;;;;;4.70;2.40;;;;;;;;;;4973701;28;20075;-77
2021/07/19 01:45:18;;;;;;;5.23;2.87;;;;;;;;;;4972911;28;20062;-77
2021/07/19 01:47:43;;;;;;;5.50;2.97;;;;;;;;;;4957351;28;20027;-77
2021/07/19 01:50:09;;;;;;;4.00;2.40;;;;;;;;;;4974530;28;20040;-77
2021/07/19 01:52:35;;;;;;;5.43;2.70;;;;;;;;;;4957478;28;20030;-77
2021/07/19 01:55:01;;;;;;;5.38;2.65;;;;;;;;;;4973095;28;20386;-76
2021/07/19 01:57:26;;;;;;;4.30;2.40;;;;;;;;;;4973178;28;20019;-77
2021/07/19 01:59:51;;;;;;;5.00;2.80;;;;;;;;;;4973256;28;20514;-77
2021/07/19 02:02:19;;;;;;;4.67;2.50;;;;;;;;;;4957276;28;20505;-77
2021/07/19 02:04:45;;;;;;;4.22;2.50;;;;;;;;;;4973208;28;20027;-77
2021/07/19 02:07:10;;;;;;;5.03;2.60;;;;;;;;;;4957153;28;20038;-77
2021/07/19 02:09:36;;;;;;;5.50;2.90;;;;;;;;;;4973053;28;20133;-77
2021/07/19 02:12:02;;;;;;;5.57;2.90;;;;;;;;;;4973011;28;20069;-77
2021/07/19 02:14:28;;;;;;;;;;;;;;;;;;4974209;28;20035;-77
2021/07/19 02:16:53;;;;;;;5.55;2.70;;;;;;;;;;4972478;28;20292;-77
2021/07/19 02:19:19;;;;;;;4.97;2.70;;;;;;;;;;4972564;28;20118;-77
2021/07/19 02:21:44;;;;;;;4.87;2.90;;;;;;;;;;4989124;28;20038;-77
2021/07/19 02:24:09;;;;;;;4.47;2.57;;;;;;;;;;4973328;28;20085;-77
2021/07/19 02:26:36;;;;;;;5.43;3.00;;;;;;;;;;4972946;28;20118;-77
2021/07/19 02:29:01;;;;;;;4.90;2.70;;;;;;;;;;4949813;29;20043;-77
2021/07/19 02:31:27;;;;;;;4.87;2.87;;;;;;;;;;4971830;28;20114;-77
2021/07/19 02:33:53;;;;;;;4.83;2.77;;;;;;;;;;4958098;28;20037;-77
2021/07/19 02:36:18;;;;;;;4.97;2.67;;;;;;;;;;4974096;28;20057;-77
2021/07/19 02:38:46;;;;;;;5.20;2.80;;;;;;;;;;4972920;28;20553;-77
2021/07/19 02:41:11;;;;;;;4.82;2.50;;;;;;;;;;4954395;28;20034;-77
2021/07/19 02:43:37;;;;;;;4.40;2.53;;;;;;;;;;4973293;28;20044;-77
2021/07/19 02:46:02;;;;;;;5.33;2.87;;;;;;;;;;4972132;28;20080;-77
2021/07/19 02:48:29;;;;;;;5.27;3.10;;;;;;;;;;4989016;28;21614;-77
2021/07/19 02:50:56;;;;;;;4.15;2.50;;;;;;;;;;4940815;28;20034;-77
2021/07/19 02:53:21;;;;;;;4.95;2.67;;;;;;;;;;4970666;28;20026;-77
2021/07/19 02:55:47;;;;;;;4.13;2.40;;;;;;;;;;4972722;28;20555;-77
2021/07/19 02:58:16;;;;;;;5.03;2.83;;;;;;;;;;4956845;28;20015;-77
2021/07/19 03:00:43;;;;;;;5.07;2.78;;;;;;;;;;4962696;28;20031;-77
2021/07/19 03:03:18;;;;;;;5.78;2.55;;;;;;;;;;4972256;28;20031;-77
2021/07/19 03:05:46;;;;;;;5.65;2.83;;;;;;;;;;4940494;28;20035;-77
2021/07/19 03:08:12;;;;;;;4.05;2.53;;;;;;;;;;4970718;28;20030;-77
2021/07/19 03:10:37;;;;;;;4.22;2.42;;;;;;;;;;4956252;28;20509;-77
2021/07/19 03:13:07;;;;;;;4.53;2.63;;;;;;;;;;4972732;28;20110;-77
2021/07/19 03:15:33;;;;;;;5.45;2.70;;;;;;;;;;4956595;28;20429;-77
2021/07/19 03:17:59;;;;;;;4.20;2.37;;;;;;;;;;4972558;28;20024;-77
2021/07/19 03:20:24;;;;;;;5.45;2.58;;;;;;;;;;4972339;28;20031;-76
2021/07/19 03:22:52;;;;;;;5.80;2.73;;;;;;;;;;4972861;28;20094;-77
2021/07/19 03:25:17;;;;;;;4.38;2.45;;;;;;;;;;4972538;28;20077;-77
2021/07/19 03:27:43;;;;;;;4.60;2.60;;;;;;;;;;4972560;28;20034;-77
2021/07/19 03:30:08;;;;;;;4.77;2.67;;;;;;;;;;4988530;28;20038;-77
2021/07/19 03:32:34;;;;;;;5.13;2.90;;;;;;;;;;4940770;29;20089;-77
2021/07/19 03:35:00;;;;;;;4.70;2.47;;;;;;;;;;4954974;28;20026;-77
2021/07/19 03:37:25;;;;;;;4.50;2.60;;;;;;;;;;4956457;28;20022;-77
2021/07/19 03:39:50;;;;;;;4.93;2.63;;;;;;;;;;4972152;28;20061;-77
2021/07/19 03:42:16;;;;;;;4.20;2.47;;;;;;;;;;4956142;28;20504;-77
2021/07/19 03:44:41;;;;;;;4.00;2.47;;;;;;;;;;4958484;28;20033;-77
2021/07/19 03:47:09;;;;;;;4.23;2.57;;;;;;;;;;4967719;28;20110;-77
2021/07/19 03:49:34;;;;;;;5.07;2.58;;;;;;;;;;4955910;29;20122;-77
2021/07/19 03:52:00;;;;;;;4.40;2.63;;;;;;;;;;4956483;29;20124;-77
2021/07/19 03:54:25;;;;;;;4.17;2.50;;;;;;;;;;4956593;29;20046;-77
2021/07/19 03:56:50;;;;;;;4.97;2.57;;;;;;;;;;4972883;28;20120;-77
2021/07/19 03:59:17;;;;;;;4.20;2.63;;;;;;;;;;4971691;28;20110;-77
2021/07/19 04:01:42;;;;;;;4.43;2.72;;;;;;;;;;4959465;28;20038;-77
2021/07/19 04:04:09;;;;;;;4.43;2.60;;;;;;;;;;4975417;28;20459;-77
2021/07/19 04:06:35;;;;;;;4.80;2.60;;;;;;;;;;4970725;28;20023;-77
2021/07/19 04:09:00;;;;;;;5.13;2.70;;;;;;;;;;4985469;28;20065;-74
2021/07/19 04:11:26;;;;;;;4.70;2.60;;;;;;;;;;4974711;28;20045;-74
2021/07/19 04:13:51;;;;;;;4.37;2.40;;;;;;;;;;4975539;28;20027;-76
2021/07/19 04:16:19;;;;;;;4.83;2.53;;;;;;;;;;4991491;28;20363;-77
2021/07/19 04:18:45;;;;;;;4.72;2.50;;;;;;;;;;4959196;28;20145;-77
2021/07/19 04:21:10;;;;;;;4.97;2.75;;;;;;;;;;4958409;28;20033;-78
2021/07/19 04:23:36;;;;;;;4.77;2.80;;;;;;;;;;4975427;28;20031;-77
2021/07/19 04:26:01;;;;;;;4.30;2.50;;;;;;;;;;4975269;28;20078;-77
2021/07/19 04:28:26;;;;;;;4.27;2.53;;;;;;;;;;4975092;28;20023;-77
2021/07/19 04:30:52;;;;;;;4.23;2.60;;;;;;;;;;4991407;28;20122;-77
2021/07/19 04:33:18;;;;;;;4.23;2.77;;;;;;;;;;4952136;29;20031;-77
2021/07/19 04:35:47;;;;;;;4.80;2.97;;;;;;;;;;5005768;23;20038;-73
2021/07/19 04:38:14;;;;;;;5.00;2.83;;;;;;;;;;4983784;28;20042;-74
2021/07/19 04:40:39;;;;;;;4.18;2.58;;;;;;;;;;4974353;28;20035;-74
2021/07/19 04:43:04;;;;;;;3.77;2.43;;;;;;;;;;4952521;29;20062;-74
2021/07/19 04:45:29;;;;;;;4.00;2.33;;;;;;;;;;4985525;28;20062;-74
2021/07/19 04:47:55;;;;;;;4.60;2.50;;;;;;;;;;4974735;28;20151;-74
2021/07/19 04:50:20;;;;;;;4.80;2.60;;;;;;;;;;4974660;28;20118;-74
2021/07/19 04:52:46;;;;;;;4.63;2.60;;;;;;;;;;4974976;28;20516;-75
2021/07/19 04:55:13;;;;;;;4.50;2.60;;;;;;;;;;4970412;28;20538;-74
2021/07/19 04:57:38;;;;;;;4.07;2.20;;;;;;;;;;4955135;28;20402;-74
2021/07/19 05:00:04;;;;;;;5.70;3.20;;;;;;;;;;4955391;29;20019;-75
2021/07/19 05:02:30;;;;;;;4.32;2.42;;;;;;;;;;4946879;28;20058;-73
2021/07/19 05:04:55;;;;;;;4.80;2.60;;;;;;;;;;4955184;29;20114;-75
2021/07/19 05:07:22;;;;;;;4.80;2.73;;;;;;;;;;4939132;29;20024;-74
2021/07/19 05:09:47;;;;;;;4.25;2.58;;;;;;;;;;4955262;29;20039;-75
2021/07/19 05:12:15;;;;;;;4.97;2.83;;;;;;;;;;4938788;29;20122;-74
2021/07/19 05:14:40;;;;;;;6.07;3.08;;;;;;;;;;4972464;28;20031;-74
2021/07/19 05:17:09;;;;;;;5.33;2.87;;;;;;;;;;4952690;28;20054;-74
2021/07/19 05:19:36;;;;;;;5.38;2.90;;;;;;;;;;4962465;28;20486;-74
2021/07/19 05:22:02;;;;;;;6.18;3.20;;;;;;;;;;4955009;28;20023;-75
2021/07/19 05:24:30;;;;;;;5.80;3.20;;;;;;;;;;4969918;28;20041;-74
2021/07/19 05:26:56;;;;;;;5.60;3.25;;;;;;;;;;4958193;28;20026;-72
2021/07/19 05:29:21;;;;;;;5.77;3.40;;;;;;;;;;4973896;28;20478;-72
2021/07/19 05:31:46;;;;;;;4.90;2.87;;;;;;;;;;4949474;28;20410;-72
2021/07/19 05:34:12;;;;;;;5.60;3.27;;;;;;;;;;4957702;28;20063;-72
2021/07/19 05:36:37;;;;;;;5.53;3.20;;;;;;;;;;4973914;28;20090;-72
2021/07/19 05:39:02;;;;;;;6.87;3.37;;;;;;;;;;4957917;28;20058;-72
2021/07/19 05:41:28;;;;;;;5.90;3.20;;;;;;;;;;4964295;28;20034;-72
2021/07/19 05:43:53;;;;;;;5.87;3.20;;;;;;;;;;4990201;28;20058;-72
2021/07/19 05:46:18;;;;;;;6.30;3.47;;;;;;;;;;4967071;28;20065;-72
2021/07/19 05:48:44;;;;;;;6.47;3.43;;;;;;;;;;4955252;28;20055;-71
2021/07/19 05:51:09;;;;;;;7.40;3.63;;;;;;;;;;4965818;28;20062;-72
2021/07/19 05:53:34;;;;;;;6.90;3.53;;;;;;;;;;4951673;29;20069;-72
2021/07/19 05:56:00;;;;;;;6.07;3.50;;;;;;;;;;4970580;28;20454;-73
2021/07/19 05:58:25;;;;;;;6.03;3.57;;;;;;;;;;4972458;28;20055;-71
2021/07/19 06:00:50;;;;;;;8.07;3.87;;;;;;;;;;4974756;28;20063;-72
2021/07/19 06:03:16;;;;;;;6.10;3.60;;;;;;;;;;4970703;28;20062;-71
2021/07/19 06:05:42;;;;;;;7.20;3.65;;;;;;;;;;4955576;28;20065;-72
2021/07/19 06:08:07;;;;;;;6.63;3.65;;;;;;;;;;4973004;28;20031;-72
2021/07/19 06:10:32;;;;;;;10.30;3.90;;;;;;;;;;4964007;28;20058;-72
2021/07/19 06:12:58;;;;;;;7.10;3.80;;;;;;;;;;4943914;29;20062;-72
2021/07/19 06:15:23;;;;;;;8.07;4.60;;;;;;;;;;4973182;28;20035;-73
2021/07/19 06:17:49;;;;;;;10.80;4.40;;;;;;;;;;4971823;28;20058;-73
2021/07/19 06:20:27;;;;;;;10.10;4.77;;;;;;;;;;4958519;28;20031;-73
2021/07/19 06:22:53;;;;;;;9.35;4.43;;;;;;;;;;4953462;28;20081;-72
2021/07/19 06:25:18;;;;;;;7.83;3.70;;;;;;;;;;4973189;28;20117;-72
2021/07/19 06:27:44;;;;;;;9.33;3.83;;;;;;;;;;4957060;28;20069;-73
2021/07/19 06:30:10;;;;;;;7.23;3.87;;;;;;;;;;4969898;28;20094;-72
2021/07/19 06:32:35;;;;;;;7.25;3.72;;;;;;;;;;4970044;28;20035;-72
2021/07/19 06:35:01;;;;;;;6.40;3.50;;;;;;;;;;4941107;28;20057;-73
2021/07/19 06:37:26;;;;;;;5.47;3.17;;;;;;;;;;4973179;28;20077;-72
2021/07/19 06:39:52;;;;;;;6.80;3.70;;;;;;;;;;4959274;28;20066;-72
2021/07/19 06:42:18;;;;;;;6.03;3.47;;;;;;;;;;4969963;28;20090;-72
2021/07/19 06:44:44;;;;;;;6.55;3.60;;;;;;;;;;4969805;28;20490;-72
2021/07/19 06:47:09;;;;;;;6.27;3.37;;;;;;;;;;4969785;28;20020;-73
2021/07/19 06:49:34;;;;;;;6.27;3.27;;;;;;;;;;4956604;28;20121;-73
2021/07/19 06:52:00;;;;;;;7.70;3.87;;;;;;;;;;4972861;28;20489;-72
2021/07/19 06:54:25;;;;;;;6.30;3.60;;;;;;;;;;4945478;28;20510;-73
2021/07/19 06:56:50;;;;;;;7.90;3.47;;;;;;;;;;4950447;29;20475;-73
2021/07/19 06:59:16;;;;;;;5.90;3.30;;;;;;;;;;4972163;28;20058;-72
2021/07/19 07:01:41;;;;;;;5.83;3.50;;;;;;;;;;4957899;28;20054;-72
2021/07/19 07:04:07;;;;;;;5.70;3.23;;;;;;;;;;4969820;28;20030;-72
2021/07/19 07:06:32;;;;;;;5.97;3.30;;;;;;;;;;4969628;28;20035;-73
2021/07/19 07:08:59;;;;;;;5.63;3.40;;;;;;;;;;4953578;29;20051;-73
2021/07/19 07:11:27;;;;;;;5.72;3.28;;;;;;;;;;4940993;28;20509;-72
2021/07/19 07:13:54;;;;;;;6.45;3.20;;;;;;;;;;4957028;28;20034;-72
2021/07/19 07:16:19;;;;;;;6.35;3.83;;;;;;;;;;4955200;28;20031;-72
2021/07/19 07:18:45;;;;;;;6.37;3.43;;;;;;;;;;4971586;28;20065;-72
2021/07/19 07:21:10;;;;;;;6.72;3.65;;;;;;;;;;4976244;28;20049;-72
2021/07/19 07:23:36;;;;;;;6.37;3.30;;;;;;;;;;4974828;28;20465;-73
2021/07/19 07:26:01;;;;;;;6.00;3.30;;;;;;;;;;4976430;28;20455;-72
2021/07/19 07:28:26;;;;;;;6.57;3.23;;;;;;;;;;4960318;28;20046;-72
2021/07/19 07:30:52;;;;;;;6.33;3.50;;;;;;;;;;4976283;28;20038;-72
2021/07/19 07:33:17;;;;;;;7.07;3.40;;;;;;;;;;4960250;28;20114;-72
2021/07/19 07:35:44;;;;;;;6.00;3.23;;;;;;;;;;4976047;28;20123;-73
2021/07/19 07:38:10;;;;;;;5.93;3.38;;;;;;;;;;4976468;28;20015;-72
2021/07/19 07:40:35;;;;;;;5.40;3.20;;;;;;;;;;4976404;28;20367;-73
2021/07/19 07:43:00;;;;;;;5.73;3.13;;;;;;;;;;4944014;28;20027;-72
2021/07/19 07:45:26;;;;;;;6.90;3.57;;;;;;;;;;4960040;28;20054;-72
2021/07/19 07:47:51;;;;;;;7.33;3.57;;;;;;;;;;4959779;28;20026;-72
2021/07/19 07:50:16;;;;;;;5.73;3.00;;;;;;;;;;4975956;28;20498;-72
2021/07/19 07:52:42;;;;;;;5.97;3.40;;;;;;;;;;4976037;28;20027;-73
2021/07/19 07:55:08;;;;;;;6.27;3.43;;;;;;;;;;4992086;28;20034;-72
2021/07/19 07:57:33;;;;;;;5.78;3.05;;;;;;;;;;4991991;28;20474;-72
2021/07/19 07:59:58;;;;;;;5.83;3.10;;;;;;;;;;4959682;28;20038;-72
2021/07/19 08:02:24;;;;;;;6.43;3.10;;;;;;;;;;4959671;28;20121;-74
2021/07/19 08:04:49;;;;;;;6.07;3.20;;;;;;;;;;4959681;28;20062;-73
2021/07/19 08:07:14;;;;;;;6.20;3.23;;;;;;;;;;4975723;28;20027;-73
2021/07/19 08:09:40;;;;;;;6.37;3.40;;;;;;;;;;4959579;28;20494;-73
2021/07/19 08:12:05;;;;;;;5.77;3.23;;;;;;;;;;4975582;28;20063;-73
2021/07/19 08:14:31;;;;;;;6.60;3.50;;;;;;;;;;4975686;28;20042;-73
2021/07/19 08:16:56;;;;;;;6.40;3.10;;;;;;;;;;4975528;28;20262;-73
2021/07/19 08:19:24;;;;;;;6.93;3.07;;;;;;;;;;4975447;28;20533;-73
2021/07/19 08:21:52;;;;;;;6.18;3.33;;;;;;;;;;4975373;28;20097;-73
2021/07/19 08:24:17;;;;;;;6.88;3.35;;;;;;;;;;4960009;28;20513;-73
2021/07/19 08:26:43;;;;;;;5.83;3.17;;;;;;;;;;4975459;28;20066;-73
2021/07/19 08:29:08;;;;;;;6.07;3.23;;;;;;;;;;4975408;28;20069;-73
2021/07/19 08:31:35;;;;;;;5.80;3.30;;;;;;;;;;4975068;28;20054;-73
2021/07/19 08:34:01;;;;;;;5.22;2.78;;;;;;;;;;4975275;28;20031;-73
2021/07/19 08:36:26;;;;;;;5.63;3.00;;;;;;;;;;4976319;28;20054;-73
2021/07/19 08:38:51;;;;;;;6.37;3.63;;;;;;;;;;4975211;28;20023;-73
2021/07/19 08:41:17;;;;;;;6.23;3.13;;;;;;;;;;4975119;28;20093;-74
2021/07/19 08:43:42;;;;;;;6.40;3.50;;;;;;;;;;4975170;28;20187;-73
2021/07/19 08:46:08;;;;;;;6.83;3.50;;;;;;;;;;4958846;28;20030;-73
2021/07/19 08:48:34;;;;;;;5.70;3.20;;;;;;;;;;4974945;28;20023;-73
2021/07/19 08:51:00;;;;;;;6.23;3.10;;;;;;;;;;4975010;28;20031;-73
2021/07/19 08:53:26;;;;;;;6.32;3.45;;;;;;;;;;4976075;28;20111;-73
2021/07/19 08:55:52;;;;;;;;;;;;;;;;;;4975272;28;20031;-74
2021/07/19 08:58:17;;;;;;;5.43;2.92;;;;;;;;;;4990873;28;19921;-73
2021/07/19 09:00:42;;;;;;;5.83;3.30;;;;;;;;;;4958877;28;20031;-74
2021/07/19 09:03:08;;;;;;;5.73;3.20;;;;;;;;;;4974615;28;20041;-74
2021/07/19 09:05:33;;;;;;;5.82;3.28;;;;;;;;;;4958796;28;20026;-74
2021/07/19 09:07:59;;;;;;;5.07;2.83;;;;;;;;;;4974545;28;20030;-73
2021/07/19 09:10:26;;;;;;;5.60;3.33;;;;;;;;;;4974554;28;20058;-73
2021/07/19 09:12:51;;;;;;;5.30;3.22;;;;;;;;;;4958564;28;20018;-73
2021/07/19 09:15:27;;;;;;;7.03;3.17;;;;;;;;;;4958301;28;20117;-73
2021/07/19 09:17:56;;;;;;;6.50;3.40;;;;;;;;;;4958674;28;20054;-73
2021/07/19 09:20:27;;;;;;;5.70;3.17;;;;;;;;;;4974568;28;20421;-73
2021/07/19 09:22:52;;;;;;;7.07;3.17;;;;;;;;;;4974511;28;20022;-74
2021/07/19 09:25:18;;;;;;;6.57;3.20;;;;;;;;;;4958408;28;20497;-73
2021/07/19 09:28:10;;;;;;;6.27;3.40;;;;;;;;;;4967957;28;20034;-73
2021/07/19 09:30:45;;;;;;;6.25;3.22;;;;;;;;;;4954629;28;20043;-73
2021/07/19 09:33:12;;;;;;;5.68;2.88;;;;;;;;;;4970454;28;20019;-73
2021/07/19 09:35:41;;;;;;;5.85;3.00;;;;;;;;;;4971000;28;20037;-74
2021/07/19 09:38:08;;;;;;;6.93;3.10;;;;;;;;;;4970491;28;20094;-74
2021/07/19 09:40:34;;;;;;;5.80;3.15;;;;;;;;;;4970611;28;20031;-73
2021/07/19 09:43:00;;;;;;;5.60;3.47;;;;;;;;;;4954028;28;20034;-73
2021/07/19 09:45:27;;;;;;;7.33;3.20;;;;;;;;;;4954537;29;20039;-73
2021/07/19 09:48:05;;;;;;;5.70;3.20;;;;;;;;;;4970611;28;20027;-74
2021/07/19 09:50:47;;;;;;;6.10;2.95;;;;;;;;;;4955162;29;20035;-74
2021/07/19 09:53:12;;;;;;;5.68;3.20;;;;;;;;;;4954364;28;20490;-74
2021/07/19 09:55:38;;;;;;;5.63;3.07;;;;;;;;;;4954506;28;20158;-74
2021/07/19 09:58:04;;;;;;;7.30;3.07;;;;;;;;;;4954351;29;20082;-74
2021/07/19 10:00:30;;;;;;;5.45;3.20;;;;;;;;;;4954380;29;20023;-74
2021/07/19 10:02:55;;;;;;;7.15;3.20;;;;;;;;;;4954288;29;20395;-74
2021/07/19 10:05:25;;;;;;;5.60;3.23;;;;;;;;;;4954240;28;20118;-74
2021/07/19 10:07:51;;;;;;;5.38;2.97;;;;;;;;;;4970128;28;20064;-74
2021/07/19 10:10:16;;;;;;;5.80;3.13;;;;;;;;;;4970231;28;20530;-74
2021/07/19 10:12:42;;;;;;;6.20;3.20;;;;;;;;;;4954229;28;20054;-74
2021/07/19 10:15:10;;;;;;;6.23;3.00;;;;;;;;;;4954283;29;20027;-74
2021/07/19 10:17:36;;;;;;;5.90;3.05;;;;;;;;;;4954148;29;20026;-74
2021/07/19 10:20:01;;;;;;;6.83;3.13;;;;;;;;;;4970106;28;20023;-74
2021/07/19 10:22:26;;;;;;;5.70;3.13;;;;;;;;;;4953929;29;20158;-74
2021/07/19 10:24:52;;;;;;;4.97;2.80;;;;;;;;;;4970207;28;20035;-74
2021/07/19 10:27:19;;;;;;;5.50;2.90;;;;;;;;;;4953743;29;20058;-74
2021/07/19 10:29:45;;;;;;;6.07;3.10;;;;;;;;;;4970140;28;20094;-74
2021/07/19 10:32:12;;;;;;;5.60;3.22;;;;;;;;;;4953805;29;20023;-74
2021/07/19 10:34:37;;;;;;;6.18;3.17;;;;;;;;;;4954112;29;20467;-74
2021/07/19 10:37:04;;;;;;;6.23;3.20;;;;;;;;;;5037784;23;20058;-76
2021/07/19 10:39:34;;;;;;;6.10;3.00;;;;;;;;;;4992551;28;20444;-76
2021/07/19 10:42:10;;;;;;;5.88;2.60;;;;;;;;;;4976366;28;20019;-76
2021/07/19 10:44:37;;;;;;;6.45;2.83;;;;;;;;;;4989577;28;20034;-76
2021/07/19 10:47:26;;;;;;;5.97;3.33;;;;;;;;;;4987754;28;20050;-76
2021/07/19 10:49:58;;;;;;;5.55;2.88;;;;;;;;;;4992725;28;20025;-77
2021/07/19 10:52:30;;;;;;;5.65;3.00;;;;;;;;;;4975931;28;20030;-76
2021/07/19 10:54:56;;;;;;;5.20;2.90;;;;;;;;;;5011449;28;20022;-76
2021/07/19 10:57:33;;;;;;;5.40;3.03;;;;;;;;;;4980199;28;20031;-76
2021/07/19 11:00:13;;;;;;;6.05;3.13;;;;;;;;;;5012680;28;20474;-76
2021/07/19 11:02:38;;;;;;;5.07;3.08;;;;;;;;;;4996521;28;20405;-76
2021/07/19 11:05:04;;;;;;;6.70;3.30;;;;;;;;;;4996368;28;20057;-77
2021/07/19 11:07:38;;;;;;;5.88;3.00;;;;;;;;;;5012714;28;20026;-77
2021/07/19 11:10:15;;;;;;;6.47;3.10;;;;;;;;;;4979994;28;20034;-76
2021/07/19 11:12:54;;;;;;;5.72;3.13;;;;;;;;;;4974926;28;20121;-76
2021/07/19 11:15:21;;;;;;;4.82;2.70;;;;;;;;;;4992562;28;20027;-76
2021/07/19 11:17:47;;;;;;;4.57;2.63;;;;;;;;;;4976653;28;20102;-77
2021/07/19 11:20:15;;;;;;;6.70;3.22;;;;;;;;;;4992702;28;20113;-76
2021/07/19 11:22:40;;;;;;;5.18;2.90;;;;;;;;;;4960212;28;20058;-77
2021/07/19 11:25:16;;;;;;;5.63;2.53;;;;;;;;;;4992814;23;20518;-76
2021/07/19 11:27:43;;;;;;;5.55;2.80;;;;;;;;;;5015194;28;20018;-76
2021/07/19 11:30:09;;;;;;;6.00;3.03;;;;;;;;;;5015571;28;20018;-76
2021/07/19 11:32:35;;;;;;;5.43;2.85;;;;;;;;;;5013487;28;20397;-76
2021/07/19 11:35:12;;;;;;;9.17;3.00;;;;;;;;;;4994492;28;20117;-76
2021/07/19 11:37:40;;;;;;;6.80;3.17;;;;;;;;;;4980524;28;20478;-76
2021/07/19 11:40:06;;;;;;;5.22;2.88;;;;;;;;;;4979565;28;20041;-76
2021/07/19 11:42:42;;;;;;;5.75;2.70;;;;;;;;;;4996701;28;20038;-76
2021/07/19 11:45:12;;;;;;;6.30;3.08;;;;;;;;;;5015189;28;20037;-76
2021/07/19 11:47:51;;;;;;;5.70;2.78;;;;;;;;;;4999008;28;20116;-74
2021/07/19 11:50:18;;;;;;;5.38;3.10;;;;;;;;;;4999713;28;20026;-74
2021/07/19 11:52:43;;;;;;;;;;;;;;;;;;4995859;28;20075;-74
2021/07/19 11:55:13;;;;;;;5.78;3.10;;;;;;;;;;4979108;28;20362;-73
2021/07/19 11:58:01;;;;;;;5.78;2.70;;;;;;;;;;4984330;28;20034;-73
2021/07/19 12:00:34;;;;;;;5.78;2.90;;;;;;;;;;5015205;28;20057;-74
2021/07/19 12:03:00;;;;;;;6.20;3.08;;;;;;;;;;4998959;28;20033;-74
2021/07/19 12:05:25;;;;;;;5.50;2.97;;;;;;;;;;5014397;28;20385;-74
2021/07/19 12:08:00;;;;;;;6.20;3.00;;;;;;;;;;4998310;28;20034;-74
2021/07/19 12:10:26;;;;;;;6.40;3.20;;;;;;;;;;5015884;28;20034;-74
2021/07/19 12:12:51;;;;;;;6.15;3.17;;;;;;;;;;4998261;28;20021;-74
2021/07/19 12:15:17;;;;;;;5.47;3.00;;;;;;;;;;5014561;28;20073;-74
2021/07/19 12:17:43;;;;;;;7.07;3.20;;;;;;;;;;5014746;28;20042;-74
2021/07/19 12:20:09;;;;;;;5.28;3.00;;;;;;;;;;5014568;28;20113;-74
2021/07/19 12:22:36;;;;;;;4.82;2.80;;;;;;;;;;5012677;28;20048;-73
2021/07/19 12:25:01;;;;;;;5.75;2.85;;;;;;;;;;5014494;28;20049;-74
2021/07/19 12:27:27;;;;;;;6.27;3.23;;;;;;;;;;5014414;28;20045;-74
2021/07/19 12:29:52;;;;;;;5.20;2.90;;;;;;;;;;4998117;28;20492;-74
2021/07/19 12:32:18;;;;;;;5.27;2.73;;;;;;;;;;4998424;28;20025;-73
2021/07/19 12:34:43;;;;;;;5.83;3.10;;;;;;;;;;5014269;28;20022;-74
2021/07/19 12:37:10;;;;;;;5.73;2.73;;;;;;;;;;5007596;28;20384;-73
2021/07/19 12:39:49;;;;;;;6.15;2.75;;;;;;;;;;4998384;28;20323;-74
2021/07/19 12:42:16;;;;;;;5.65;2.97;;;;;;;;;;5014098;28;20029;-74
2021/07/19 12:44:46;;;;;;;5.47;2.90;;;;;;;;;;5014050;28;20476;-74
2021/07/19 12:47:15;;;;;;;6.32;3.08;;;;;;;;;;4997644;28;20076;-74
2021/07/19 12:49:40;;;;;;;5.45;2.88;;;;;;;;;;4997700;28;20018;-74
2021/07/19 12:52:06;;;;;;;5.30;2.60;;;;;;;;;;4997718;28;20087;-73
2021/07/19 12:54:32;;;;;;;5.20;2.77;;;;;;;;;;5013817;28;20034;-74
2021/07/19 12:56:57;;;;;;;5.40;2.83;;;;;;;;;;4997609;28;20022;-74
2021/07/19 12:59:23;;;;;;;5.20;2.87;;;;;;;;;;4997556;28;20029;-74
2021/07/19 13:01:49;;;;;;;5.57;2.80;;;;;;;;;;4997526;28;20029;-74
2021/07/19 13:04:21;;;;;;;4.77;2.77;;;;;;;;;;5013826;28;20500;-74
2021/07/19 13:06:46;;;;;;;6.00;2.95;;;;;;;;;;4994615;28;20273;-74
2021/07/19 13:09:19;;;;;;;5.37;2.93;;;;;;;;;;4994072;28;20480;-74
2021/07/19 13:11:45;;;;;;;5.88;2.97;;;;;;;;;;4994127;28;20026;-73
2021/07/19 13:14:18;;;;;;;4.47;2.60;;;;;;;;;;4993957;28;20053;-74
2021/07/19 13:16:59;;;;;;;5.80;2.92;;;;;;;;;;4993148;28;20018;-74
2021/07/19 13:19:31;;;;;;;5.57;2.78;;;;;;;;;;4993883;28;20029;-74
2021/07/19 13:21:56;;;;;;;5.65;2.90;;;;;;;;;;4993608;28;20026;-74
2021/07/19 13:24:22;;;;;;;5.17;2.90;;;;;;;;;;5010083;28;20065;-74
2021/07/19 13:26:47;;;;;;;4.90;2.70;;;;;;;;;;4993558;28;20041;-73
2021/07/19 13:29:12;;;;;;;4.77;2.57;;;;;;;;;;4994472;28;20073;-74
2021/07/19 13:31:38;;;;;;;5.80;2.63;;;;;;;;;;4993586;28;20058;-74
2021/07/19 13:34:13;;;;;;;4.97;2.77;;;;;;;;;;4993723;28;20081;-74
2021/07/19 13:36:42;;;;;;;5.95;3.10;;;;;;;;;;4993570;28;20037;-74
2021/07/19 13:39:07;;;;;;;4.90;2.65;;;;;;;;;;4994703;28;20424;-74
2021/07/19 13:41:32;;;;;;;4.73;2.63;;;;;;;;;;4993440;28;20026;-74
2021/07/19 13:44:01;;;;;;;5.63;2.67;;;;;;;;;;4993403;28;20032;-74
2021/07/19 13:46:27;;;;;;;5.90;2.85;;;;;;;;;;4977051;28;20049;-74
2021/07/19 13:48:53;;;;;;;5.43;2.90;;;;;;;;;;4976998;28;20033;-73
2021/07/19 13:51:18;;;;;;;5.93;2.93;;;;;;;;;;5009921;28;20058;-74
2021/07/19 13:53:43;;;;;;;5.17;2.67;;;;;;;;;;4993126;28;20061;-74
2021/07/19 13:56:09;;;;;;;5.40;2.87;;;;;;;;;;4994420;28;20117;-74
2021/07/19 13:58:34;;;;;;;5.50;2.83;;;;;;;;;;4993012;28;20060;-74
2021/07/19 14:01:00;;;;;;;5.40;2.83;;;;;;;;;;4993260;28;20068;-74
2021/07/19 14:03:25;;;;;;;5.53;2.73;;;;;;;;;;5009488;28;20477;-74
2021/07/19 14:05:51;;;;;;;5.53;3.10;;;;;;;;;;5009375;28;20105;-74
2021/07/19 14:08:16;;;;;;;5.53;2.70;;;;;;;;;;4980017;28;20032;-74
2021/07/19 14:10:41;;;;;;;5.37;2.83;;;;;;;;;;5029003;28;20025;-73
2021/07/19 14:13:07;;;;;;;5.87;2.73;;;;;;;;;;5012519;28;20116;-74
2021/07/19 14:15:33;;;;;;;5.72;2.67;;;;;;;;;;5012522;28;20028;-74
2021/07/19 14:17:58;;;;;;;5.47;2.70;;;;;;;;;;5012500;28;20113;-74
2021/07/19 14:20:24;;;;;;;6.17;2.83;;;;;;;;;;5028925;28;20392;-73
2021/07/19 14:22:49;;;;;;;4.93;2.90;;;;;;;;;;5012347;28;20120;-74
2021/07/19 14:25:14;;;;;;;5.90;2.80;;;;;;;;;;5012543;28;20038;-74
2021/07/19 14:27:40;;;;;;;4.57;2.57;;;;;;;;;;5028405;28;20112;-74
2021/07/19 14:30:08;;;;;;;4.93;2.70;;;;;;;;;;5012319;28;20115;-74
2021/07/19 14:32:34;;;;;;;4.95;2.60;;;;;;;;;;5012036;28;20121;-73
2021/07/19 14:34:59;;;;;;;4.33;2.60;;;;;;;;;;5012477;28;20061;-74
2021/07/19 14:37:25;;;;;;;4.73;2.30;;;;;;;;;;5028657;28;20025;-74
2021/07/19 14:39:50;;;;;;;5.33;2.80;;;;;;;;;;5012265;28;20064;-73
2021/07/19 14:42:15;;;;;;;5.27;2.70;;;;;;;;;;5012127;28;20064;-74